Time;durP1;ratioP1;P1;durP2;ratioP2;P2;SDS_P1;SDS_P2;PMS_P1;PMS_P2;Temp;Humidity;BMP_temperature;BMP_pressure;BME280_temperature;BME280_humidity;BME280_pressure;Samples;Min_cycle;Max_cycle;Signal;HPM_P1;HPM_P2
2022/07/01 00:02:25;;;;;;;5.68;1.50;;;;;;;;;;5014268;28;20049;-88
2022/07/01 00:04:51;;;;;;;2.60;1.60;;;;;;;;;;5013424;28;20133;-87
2022/07/01 00:07:18;;;;;;;2.80;1.30;;;;;;;;;;5014306;28;20075;-86
2022/07/01 00:09:44;;;;;;;1.45;1.33;;;;;;;;;;5027947;28;20045;-87
2022/07/01 00:12:10;;;;;;;2.22;1.30;;;;;;;;;;5017545;28;20053;-90
2022/07/01 00:14:36;;;;;;;2.75;1.42;;;;;;;;;;5017448;28;20477;-87
2022/07/01 00:17:02;;;;;;;5.00;1.27;;;;;;;;;;5033620;28;20554;-86
2022/07/01 00:19:28;;;;;;;2.35;1.13;;;;;;;;;;5049682;28;20041;-89
2022/07/01 00:21:54;;;;;;;3.10;1.40;;;;;;;;;;5034125;28;20132;-86
2022/07/01 00:24:20;;;;;;;1.83;1.40;;;;;;;;;;5017346;28;20041;-86
2022/07/01 00:26:46;;;;;;;3.40;1.27;;;;;;;;;;5033930;28;20445;-86
2022/07/01 00:29:12;;;;;;;3.75;1.30;;;;;;;;;;5051099;28;20433;-86
2022/07/01 00:31:39;;;;;;;4.70;1.60;;;;;;;;;;5048535;28;20049;-85
2022/07/01 00:34:05;;;;;;;3.40;1.13;;;;;;;;;;5033562;28;20041;-85
2022/07/01 00:36:31;;;;;;;1.85;1.58;;;;;;;;;;5033669;28;20049;-85
2022/07/01 00:38:58;;;;;;;3.00;1.23;;;15.40;99.90;;;;;;5033521;28;20081;-85
2022/07/01 00:41:24;;;;;;;2.55;1.30;;;;;;;;;;5048459;28;20122;-85
2022/07/01 00:43:50;;;;;;;2.90;1.33;;;;;;;;;;5017182;28;20150;-86
2022/07/01 00:46:16;;;;;;;4.47;1.23;;;15.60;99.90;;;;;;5033214;28;20048;-86
2022/07/01 00:48:43;;;;;;;3.05;1.17;;;;;;;;;;5016925;28;20048;-86
2022/07/01 00:51:09;;;;;;;5.53;1.60;;;;;;;;;;5016547;28;20041;-86
2022/07/01 00:53:36;;;;;;;2.20;1.33;;;15.40;99.90;;;;;;5033641;28;20041;-85
2022/07/01 00:56:02;;;;;;;2.13;1.50;;;;;;;;;;5016880;28;20045;-85
2022/07/01 00:58:28;;;;;;;1.60;1.20;;;;;;;;;;5017280;28;20041;-86
2022/07/01 01:00:55;;;;;;;2.97;1.60;;;;;;;;;;5017344;28;20067;-86
2022/07/01 01:03:21;;;;;;;2.88;1.50;;;;;;;;;;5012217;28;20050;-86
2022/07/01 01:05:47;;;;;;;2.30;1.50;;;;;;;;;;4997095;28;20053;-85
2022/07/01 01:08:13;;;;;;;1.42;1.33;;;;;;;;;;4997110;28;20037;-86
2022/07/01 01:10:40;;;;;;;3.80;1.80;;;;;;;;;;4998027;28;20454;-86
2022/07/01 01:13:06;;;;;;;3.90;2.13;;;;;;;;;;5032439;28;20041;-86
2022/07/01 01:15:32;;;;;;;5.78;1.55;;;;;;;;;;5016735;28;20053;-86
2022/07/01 01:17:58;;;;;;;1.90;1.50;;;;;;;;;;5035999;28;20045;-86
2022/07/01 01:20:24;;;;;;;1.50;1.40;;;;;;;;;;5020273;28;20048;-86
2022/07/01 01:22:51;;;;;;;1.73;1.60;;;;;;;;;;5019282;28;20171;-86
2022/07/01 01:25:17;;;;;;;4.07;1.25;;;;;;;;;;5014710;28;20096;-86
2022/07/01 01:27:43;;;;;;;3.67;1.35;;;;;;;;;;5016597;28;20103;-85
2022/07/01 01:30:11;;;;;;;2.78;1.65;;;;;;;;;;5016611;28;20522;-86
2022/07/01 01:32:37;;;;;;;4.78;1.83;;;;;;;;;;5015752;28;20060;-85
2022/07/01 01:35:04;;;;;;;3.20;2.75;;;;;;;;;;5000341;28;20045;-86
2022/07/01 01:37:30;;;;;;;1.88;1.40;;;;;;;;;;5033274;28;20099;-85
2022/07/01 01:39:57;;;;;;;1.88;1.75;;;;;;;;;;5033000;28;20064;-86
2022/07/01 01:42:23;;;;;;;1.92;1.60;;;;;;;;;;5000165;28;20097;-86
2022/07/01 01:44:49;;;;;;;1.70;1.52;;;;;;;;;;5016140;28;20463;-86
2022/07/01 01:47:15;;;;;;;3.58;1.65;;;;;;;;;;5016477;28;20049;-86
2022/07/01 01:49:41;;;;;;;2.55;1.73;;;;;;;;;;4999915;28;20050;-86
2022/07/01 01:52:07;;;;;;;4.63;2.72;;;;;;;;;;5000162;28;20042;-86
2022/07/01 01:54:36;;;;;;;2.25;1.60;;;;;;;;;;5045066;28;20095;-86
2022/07/01 01:57:02;;;;;;;5.88;1.67;;;;;;;;;;5054387;28;20049;-86
2022/07/01 01:59:28;;;;;;;3.88;1.92;;;;;;;;;;5036478;28;20401;-86
2022/07/01 02:01:54;;;;;;;2.33;1.75;;;;;;;;;;5020145;28;20448;-86
2022/07/01 02:04:23;;;;;;;2.50;1.88;;;;;;;;;;5018847;28;20474;-86
2022/07/01 02:06:49;;;;;;;4.82;1.70;;;;;;;;;;5053388;28;20459;-86
2022/07/01 02:09:15;;;;;;;2.42;2.03;;;;;;;;;;5053948;28;20087;-86
2022/07/01 02:11:41;;;;;;;6.15;2.00;;;;;;;;;;5036020;28;20448;-86
2022/07/01 02:14:08;;;;;;;1.90;1.70;;;;;;;;;;5015331;28;20053;-86
2022/07/01 02:16:34;;;;;;;2.97;1.80;;;;;;;;;;4999611;28;20042;-86
2022/07/01 02:19:00;;;;;;;7.53;1.90;;;;;;;;;;4999383;28;20619;-86
2022/07/01 02:21:26;;;;;;;2.65;1.65;;;;;;;;;;5016125;28;20425;-86
2022/07/01 02:23:52;;;;;;;2.40;1.65;;;;;;;;;;5002594;28;20044;-86
2022/07/01 02:26:19;;;;;;;1.58;1.40;;;;;;;;;;5018848;28;20048;-86
2022/07/01 02:28:45;;;;;;;1.63;1.52;;;;;;;;;;5018050;28;20080;-86
2022/07/01 02:31:11;;;;;;;3.33;1.70;;;;;;;;;;5035713;28;20106;-86
2022/07/01 02:33:37;;;;;;;2.55;2.15;;;;;;;;;;5015030;28;20482;-87
2022/07/01 02:36:03;;;;;;;6.57;3.00;;;;;;;;;;4999233;28;20048;-86
2022/07/01 02:38:30;;;;;;;4.00;2.25;;;;;;;;;;4999395;28;20045;-87
2022/07/01 02:40:56;;;;;;;3.10;2.20;;;;;;;;;;5015462;28;20042;-86
2022/07/01 02:43:22;;;;;;;3.83;2.10;;;;;;;;;;5016175;28;20052;-86
2022/07/01 02:45:48;;;;;;;2.28;2.05;;;;;;;;;;5034995;28;20048;-87
2022/07/01 02:48:14;;;;;;;5.13;2.25;;;;;;;;;;5018685;28;20075;-86
2022/07/01 02:50:40;;;;;;;3.65;2.20;;;;;;;;;;5052675;28;20528;-86
2022/07/01 02:53:06;;;;;;;4.93;2.65;;;;;;;;;;5035039;28;20044;-86
2022/07/01 02:55:32;;;;;;;3.05;2.40;;;;;;;;;;5017821;28;20049;-86
2022/07/01 02:57:58;;;;;;;2.30;2.10;;;;;;;;;;5035214;28;20041;-86
2022/07/01 03:00:24;;;;;;;2.50;1.88;;;;;;;;;;5018855;28;20071;-87
2022/07/01 03:02:50;;;;;;;2.70;2.50;;;;;;;;;;5034793;28;20056;-86
2022/07/01 03:05:17;;;;;;;4.88;2.78;;;;;;;;;;5033889;28;20445;-87
2022/07/01 03:07:43;;;;;;;2.80;2.55;;;;;;;;;;5018353;28;20045;-87
2022/07/01 03:10:10;;;;;;;5.00;2.60;;;15.30;99.90;;;;;;5052525;28;20055;-86
2022/07/01 03:12:38;;;;;;;3.30;2.42;;;;;;;;;;5034627;28;20041;-86
2022/07/01 03:15:09;;;;;;;4.00;2.60;;;;;;;;;;5034532;28;20057;-86
2022/07/01 03:17:36;;;;;;;4.28;2.30;;;;;;;;;;5017582;28;20490;-86
2022/07/01 03:20:04;;;;;;;2.83;2.28;;;;;;;;;;5033453;28;20102;-86
2022/07/01 03:22:31;;;;;;;3.78;2.85;;;;;;;;;;5016923;28;20080;-90
2022/07/01 03:24:57;;;;;;;6.43;2.45;;;15.20;99.90;;;;;;5033789;28;20127;-92
2022/07/01 03:27:24;;;;;;;3.63;2.58;;;;;;;;;;5034228;28;20057;-89
2022/07/01 03:29:50;;;;;;;7.05;2.25;;;;;;;;;;5018346;28;20056;-91
2022/07/01 03:32:18;;;;;;;3.28;2.65;;;;;;;;;;5034444;28;20175;-89
2022/07/01 03:34:45;;;;;;;2.80;2.58;;;;;;;;;;5034678;28;20044;-90
2022/07/01 03:37:12;;;;;;;7.07;2.88;;;;;;;;;;5050741;28;20112;-88
2022/07/01 03:39:39;;;;;;;3.33;2.80;;;;;;;;;;5034186;28;20045;-90
2022/07/01 03:42:05;;;;;;;4.20;3.20;;;;;;;;;;5018186;28;20040;-91
2022/07/01 03:44:32;;;;;;;4.13;3.10;;;;;;;;;;5052377;28;20619;-90
2022/07/01 03:46:58;;;;;;;4.80;2.70;;;;;;;;;;5014286;28;20072;-91
2022/07/01 03:49:24;;;;;;;3.22;2.92;;;;;;;;;;5014903;28;20053;-91
2022/07/01 03:51:50;;;;;;;6.15;3.20;;;;;;;;;;4998231;28;20099;-92
2022/07/01 03:57:02;;;;;;;5.35;3.22;;;;;;;;;;5034287;28;20465;-91
2022/07/01 03:59:29;;;;;;;6.18;4.22;;;;;;;;;;5017952;28;20047;-91
2022/07/01 04:01:56;;;;;;;4.18;3.60;;;;;;;;;;5018012;28;20077;-91
2022/07/01 04:04:22;;;;;;;4.03;3.40;;;;;;;;;;5018035;28;20041;-92
2022/07/01 04:06:49;;;;;;;8.70;3.17;;;;;;;;;;5015497;28;20140;-90
2022/07/01 04:09:16;;;;;;;10.55;3.97;;;15.00;99.90;;;;;;5033154;28;20037;-89
2022/07/01 04:11:43;;;;;;;6.28;3.65;;;;;;;;;;5017172;28;20091;-90
2022/07/01 04:14:09;;;;;;;4.80;3.58;;;;;;;;;;5017524;28;20593;-91
2022/07/01 04:16:35;;;;;;;6.05;3.42;;;;;;;;;;5033895;28;20049;-90
2022/07/01 04:19:01;;;;;;;4.88;3.47;;;;;;;;;;5017664;28;20040;-90
2022/07/01 04:24:15;;;;;;;5.25;3.90;;;;;;;;;;5013979;28;20559;-92
2022/07/01 04:26:42;;;;;;;8.07;4.22;;;14.90;99.90;;;;;;4998303;28;20394;-91
2022/07/01 04:29:08;;;;;;;4.53;4.03;;;;;;;;;;5014283;28;20409;-89
2022/07/01 04:31:35;;;;;;;5.22;4.05;;;;;;;;;;5016024;28;20124;-89
2022/07/01 04:34:01;;;;;;;8.55;4.40;;;;;;;;;;5033754;28;20207;-89
2022/07/01 04:36:27;;;;;;;8.55;4.25;;;;;;;;;;5017209;28;20045;-91
2022/07/01 04:38:53;;;;;;;7.25;4.28;;;;;;;;;;5051230;28;20071;-89
2022/07/01 04:44:04;;;;;;;9.30;4.88;;;;;;;;;;5032133;28;20045;-92
2022/07/01 04:46:30;;;;;;;7.40;4.47;;;;;;;;;;5016217;28;20048;-86
2022/07/01 04:48:56;;;;;;;6.68;5.03;;;;;;;;;;5032557;28;20396;-87
2022/07/01 04:51:22;;;;;;;5.00;4.13;;;;;;;;;;5034066;28;20048;-88
2022/07/01 04:53:49;;;;;;;6.13;4.40;;;;;;;;;;5036277;28;20041;-87
2022/07/01 04:56:15;;;;;;;8.73;5.00;;;;;;;;;;5054570;28;20095;-86
2022/07/01 04:58:41;;;;;;;7.05;4.43;;;;;;;;;;5054801;28;20041;-87
2022/07/01 05:01:13;;;;;;;6.88;5.15;;;;;;;;;;5036863;28;20053;-87
2022/07/01 05:03:40;;;;;;;5.78;4.80;;;;;;;;;;5033243;28;20525;-88
2022/07/01 05:06:06;;;;;;;8.02;4.90;;;;;;;;;;5027082;28;20049;-87
2022/07/01 05:08:32;;;;;;;5.57;4.57;;;;;;;;;;5021089;28;20041;-87
2022/07/01 05:10:58;;;;;;;5.18;4.68;;;;;;;;;;5017974;28;20103;-87
2022/07/01 05:13:24;;;;;;;6.68;5.78;;;;;;;;;;5036094;28;20040;-87
2022/07/01 05:15:51;;;;;;;5.03;4.53;;;;;;;;;;5037108;28;20049;-87
2022/07/01 05:23:46;;;;;;;10.73;5.43;;;;;;;;;;5055498;28;20129;-87
2022/07/01 05:26:16;;;;;;;8.35;5.20;;;;;;;;;;5036628;28;20486;-88
2022/07/01 05:28:46;;;;;;;7.78;5.00;;;;;;;;;;5036694;28;20064;-88
2022/07/01 05:31:12;;;;;;;8.35;6.10;;;;;;;;;;5019331;28;20056;-89
2022/07/01 05:33:38;;;;;;;11.77;6.60;;;;;;;;;;5036931;28;20041;-90
2022/07/01 05:36:04;;;;;;;6.95;5.82;;;;;;;;;;5054865;28;20147;-89
2022/07/01 05:38:30;;;;;;;12.02;7.50;;;;;;;;;;5036638;28;20520;-91
2022/07/01 05:40:57;;;;;;;10.80;7.38;;;;;;;;;;5035901;28;20151;-90
2022/07/01 05:43:23;;;;;;;10.30;7.57;;;;;;;;;;5015191;28;20111;-88
2022/07/01 05:45:49;;;;;;;12.85;8.63;;;;;;;;;;5020000;28;20049;-88
2022/07/01 05:48:15;;;;;;;13.70;7.75;;;;;;;;;;5035590;28;20048;-90
2022/07/01 05:50:41;;;;;;;14.00;8.52;;;;;;;;;;5020588;28;20064;-87
2022/07/01 05:53:07;;;;;;;14.60;8.52;;;;;;;;;;5052794;28;20478;-87
2022/07/01 05:55:33;;;;;;;12.15;8.95;;;;;;;;;;5016097;28;20102;-87
2022/07/01 05:58:01;;;;;;;15.48;10.32;;;;;;;;;;5033911;28;20124;-87
2022/07/01 06:00:27;;;;;;;18.50;9.77;;;;;;;;;;5016099;28;20044;-88
2022/07/01 06:02:53;;;;;;;18.85;10.85;;;;;;;;;;5011753;28;20045;-88
2022/07/01 06:05:19;;;;;;;14.55;9.75;;;;;;;;;;5015341;28;20077;-88
2022/07/01 06:07:45;;;;;;;17.48;10.48;;;;;;;;;;5018521;28;20048;-88
2022/07/01 06:10:11;;;;;;;14.20;9.93;;;;;;;;;;5012057;28;20072;-88
2022/07/01 06:12:38;;;;;;;14.88;10.35;;;;;;;;;;5025596;28;20429;-88
2022/07/01 06:15:09;;;;;;;14.88;10.57;;;15.50;99.90;;;;;;5016736;28;20049;-88
2022/07/01 06:17:35;;;;;;;16.83;11.00;;;;;;;;;;5035256;28;20044;-88
2022/07/01 06:20:01;;;;;;;14.90;10.60;;;;;;;;;;5029241;28;20068;-88
2022/07/01 06:22:27;;;;;;;17.58;10.77;;;;;;;;;;5008200;28;20037;-88
2022/07/01 06:24:53;;;;;;;15.43;10.57;;;;;;;;;;5026579;28;20045;-88
2022/07/01 06:27:19;;;;;;;18.40;10.48;;;;;;;;;;5034400;28;20045;-87
2022/07/01 06:29:45;;;;;;;17.90;11.35;;;;;;;;;;5035710;28;20074;-88
2022/07/01 06:32:11;;;;;;;16.67;10.98;;;;;;;;;;5051960;28;20064;-86
2022/07/01 06:34:38;;;;;;;26.50;11.30;;;;;;;;;;5035224;28;20047;-86
2022/07/01 06:37:04;;;;;;;23.40;12.68;;;;;;;;;;5055708;28;20091;-87
2022/07/01 06:39:30;;;;;;;21.75;12.02;;;;;;;;;;5068470;28;20045;-87
2022/07/01 06:41:56;;;;;;;25.42;13.13;;;;;;;;;;5037246;28;20098;-88
2022/07/01 06:44:23;;;;;;;19.70;12.05;;;;;;;;;;5050396;28;20151;-86
2022/07/01 06:46:49;;;;;;;15.48;11.25;;;;;;;;;;5053739;28;20132;-86
2022/07/01 06:49:15;;;;;;;18.48;12.85;;;;;;;;;;5046844;28;20112;-86
2022/07/01 06:51:41;;;;;;;18.23;12.65;;;;;;;;;;5047127;28;20045;-87
2022/07/01 06:54:08;;;;;;;17.15;11.45;;;;;;;;;;5071959;28;20076;-86
2022/07/01 06:56:34;;;;;;;22.27;13.20;;;;;;;;;;5073526;28;20051;-90
2022/07/01 06:59:01;;;;;;;16.55;11.30;;;;;;;;;;5038781;28;20051;-90
2022/07/01 07:01:27;;;;;;;19.63;13.30;;;;;;;;;;4994311;28;20053;-87
2022/07/01 07:03:54;;;;;;;19.50;12.93;;;;;;;;;;5030645;28;20067;-84
2022/07/01 07:06:20;;;;;;;16.45;12.85;;;;;;;;;;5067552;28;20143;-84
2022/07/01 07:08:46;;;;;;;19.35;14.05;;;;;;;;;;5059424;28;20047;-83
2022/07/01 07:11:14;;;;;;;22.05;13.20;;;;;;;;;;5047646;28;20044;-84
2022/07/01 07:13:40;;;;;;;18.55;13.20;;;;;;;;;;5066997;28;20068;-83
2022/07/01 07:16:06;;;;;;;19.23;12.60;;;;;;;;;;5070947;28;20111;-84
2022/07/01 07:18:33;;;;;;;28.17;13.93;;;;;;;;;;5032000;28;20083;-83
2022/07/01 07:20:59;;;;;;;23.27;14.93;;;;;;;;;;5069548;28;20045;-82
2022/07/01 07:23:25;;;;;;;24.05;14.52;;;;;;;;;;5065398;28;20048;-82
2022/07/01 07:25:51;;;;;;;22.70;14.88;;;;;;;;;;5053807;28;20059;-82
2022/07/01 07:28:17;;;;;;;16.77;12.63;;;;;;;;;;5036876;28;20132;-82
2022/07/01 07:30:43;;;;;;;33.78;14.50;;;;;;;;;;5019029;28;20393;-83
2022/07/01 07:33:09;;;;;;;18.70;13.20;;;;;;;;;;5033461;28;20037;-81
2022/07/01 07:35:35;;;;;;;24.15;13.98;;;;;;;;;;5016754;28;20052;-82
2022/07/01 07:38:01;;;;;;;25.45;13.52;;;;;;;;;;5015826;28;20044;-82
2022/07/01 07:40:27;;;;;;;21.75;13.60;;;;;;;;;;5033973;28;20515;-82
2022/07/01 07:42:54;;;;;;;18.30;12.75;;;;;;;;;;5018667;28;20041;-82
2022/07/01 07:45:20;;;;;;;17.08;13.13;;;;;;;;;;5013390;28;20487;-82
2022/07/01 07:47:48;;;;;;;16.92;11.90;;;16.40;99.90;;;;;;5024104;28;20095;-80
2022/07/01 07:50:14;;;;;;;20.77;13.23;;;;;;;;;;5033353;28;20052;-82
2022/07/01 07:52:40;;;;;;;17.23;11.93;;;;;;;;;;5015912;28;20045;-81
2022/07/01 07:55:08;;;;;;;20.05;12.65;;;16.50;99.90;;;;;;5033872;28;20053;-81
2022/07/01 07:57:36;;;;;;;21.20;13.65;;;16.40;99.90;;;;;;5032609;28;20421;-82
2022/07/01 08:00:02;;;;;;;15.65;10.88;;;;;;;;;;5065934;28;20037;-81
2022/07/01 08:02:28;;;;;;;17.02;11.85;;;;;;;;;;5027521;28;20037;-81
2022/07/01 08:04:54;;;;;;;20.63;11.32;;;;;;;;;;5036517;28;20041;-81
2022/07/01 08:07:20;;;;;;;18.20;12.18;;;;;;;;;;5016191;28;20052;-81
2022/07/01 08:09:48;;;;;;;16.55;11.43;;;;;;;;;;5021678;28;20449;-81
2022/07/01 08:12:15;;;;;;;20.25;12.18;;;;;;;;;;5011194;28;20091;-81
2022/07/01 08:14:41;;;;;;;21.90;12.38;;;;;;;;;;5006100;28;20087;-81
2022/07/01 08:17:07;;;;;;;15.55;10.32;;;;;;;;;;5016163;28;20032;-81
2022/07/01 08:19:33;;;;;;;17.58;10.35;;;;;;;;;;5012926;28;20065;-81
2022/07/01 08:21:59;;;;;;;18.02;11.95;;;;;;;;;;5031888;28;20040;-81
2022/07/01 08:24:25;;;;;;;16.33;11.25;;;;;;;;;;5007872;28;20053;-81
2022/07/01 08:26:51;;;;;;;15.90;9.63;;;;;;;;;;5019254;28;20045;-81
2022/07/01 08:29:17;;;;;;;17.92;9.93;;;;;;;;;;5024479;28;20103;-81
2022/07/01 08:31:43;;;;;;;17.77;9.77;;;;;;;;;;5030529;28;20471;-81
2022/07/01 08:34:10;;;;;;;19.05;9.88;;;;;;;;;;5016714;28;20041;-81
2022/07/01 08:36:36;;;;;;;12.40;8.60;;;17.40;99.90;;;;;;5009937;28;20055;-81
2022/07/01 08:39:02;;;;;;;15.30;8.38;;;;;;;;;;5020660;28;20080;-82
2022/07/01 08:41:28;;;;;;;9.15;7.50;;;;;;;;;;5028389;28;20553;-82
2022/07/01 08:43:54;;;;;;;9.07;7.85;;;;;;;;;;5028941;28;20494;-82
2022/07/01 08:46:21;;;;;;;10.27;7.05;;;18.00;99.90;;;;;;5032591;28;20056;-82
2022/07/01 08:48:47;;;;;;;13.98;6.97;;;;;;;;;;5053512;28;20047;-82
2022/07/01 08:51:13;;;;;;;9.32;6.72;;;;;;;;;;5020395;28;20056;-82
2022/07/01 08:53:39;;;;;;;9.13;6.85;;;;;;;;;;5014311;28;20046;-82
2022/07/01 08:58:49;;;;;;;;;;;18.20;99.90;;;;;;5054825;28;20140;-83
2022/07/01 09:01:22;;;;;;;10.40;7.82;;;18.20;99.90;;;;;;5036507;28;19964;-82
2022/07/01 09:03:53;;;;;;;16.90;8.18;;;18.10;99.90;;;;;;5000942;28;20045;-83
2022/07/01 09:06:26;;;;;;;8.20;6.47;;;18.30;99.90;;;;;;5034833;28;20049;-83
2022/07/01 09:08:53;;;;;;;16.45;6.68;;;;;;;;;;5034908;28;20042;-83
2022/07/01 09:11:23;;;;;;;12.73;7.47;;;18.50;99.90;;;;;;5017139;28;20085;-84
2022/07/01 09:14:06;;;;;;;11.05;6.93;;;18.70;99.90;;;;;;5049972;28;20556;-84
2022/07/01 09:16:41;;;;;;;6.90;6.07;;;18.60;99.90;;;;;;5074370;28;20180;-84
2022/07/01 09:19:07;;;;;;;12.15;7.22;;;;;;;;;;5065552;28;20509;-84
2022/07/01 09:21:33;;;;;;;6.63;5.40;;;;;;;;;;5054698;28;20045;-84
2022/07/01 09:24:05;;;;;;;5.85;5.03;;;18.80;99.90;;;;;;5036980;28;20071;-84
2022/07/01 09:26:32;;;;;;;5.35;4.32;;;;;;;;;;5031572;28;20048;-84
2022/07/01 09:28:59;;;;;;;7.00;3.30;;;18.80;99.90;;;;;;5037798;28;20128;-84
2022/07/01 09:31:33;;;;;;;7.63;2.33;;;19.10;99.90;;;;;;5055058;28;20381;-84
2022/07/01 09:34:07;;;;;;;8.48;3.75;;;19.20;99.90;;;;;;5036730;28;20041;-84
2022/07/01 09:36:37;;;;;;;7.32;2.50;;;18.60;99.90;;;;;;5035155;28;20056;-84
2022/07/01 09:39:06;;;;;;;5.57;2.22;;;18.90;99.90;;;;;;5036220;28;20087;-83
2022/07/01 09:41:37;;;;;;;8.98;2.75;;;18.90;99.90;;;;;;5034863;28;20050;-85
2022/07/01 09:44:09;;;;;;;3.63;2.22;;;18.80;99.90;;;;;;5039363;28;20421;-84
2022/07/01 09:46:35;;;;;;;6.80;1.77;;;;;;;;;;5015345;28;20494;-84
2022/07/01 09:49:01;;;;;;;2.45;1.85;;;;;;;;;;5021862;28;20075;-83
2022/07/01 09:51:30;;;;;;;4.72;1.92;;;;;;;;;;5040850;28;20048;-83
2022/07/01 09:53:56;;;;;;;3.35;2.08;;;19.10;99.90;;;;;;5017438;28;20296;-83
2022/07/01 09:56:23;;;;;;;3.90;1.70;;;19.30;99.90;;;;;;5027767;28;20048;-83
2022/07/01 09:58:50;;;;;;;4.65;1.38;;;;;;;;;;5011919;28;20090;-83
2022/07/01 10:01:16;;;;;;;6.82;1.90;;;;;;;;;;5021009;28;20415;-84
2022/07/01 10:03:42;;;;;;;4.63;2.30;;;;;;;;;;5004821;28;20041;-84
2022/07/01 10:06:10;;;;;;;3.38;2.22;;;;;;;;;;5003592;28;20045;-82
2022/07/01 10:09:09;;;;;;;8.68;2.97;;;19.10;99.90;;;;;;5020971;28;20049;-84
2022/07/01 10:11:36;;;;;;;5.25;2.78;;;;;;;;;;5057114;28;20044;-83
2022/07/01 10:14:06;;;;;;;4.53;2.80;;;19.50;99.90;;;;;;5035933;28;20046;-83
2022/07/01 10:16:32;;;;;;;5.88;2.53;;;;;;;;;;5037642;28;20060;-83
2022/07/01 10:18:59;;;;;;;13.10;3.53;;;;;;;;;;5021182;28;20037;-84
2022/07/01 10:21:34;;;;;;;3.15;2.50;;;19.90;99.90;;;;;;5019774;28;20052;-84
2022/07/01 10:24:14;;;;;;;7.35;2.70;;;19.80;99.90;;;;;;5027768;28;20458;-84
2022/07/01 10:26:43;;;;;;;5.55;2.50;;;19.90;99.90;;;;;;5035246;28;20041;-84
2022/07/01 10:29:29;;;;;;;2.92;2.65;;;19.80;99.90;;;;;;5033528;28;20048;-83
2022/07/01 10:31:55;;;;;;;4.65;2.20;;;;;;;;;;5055504;28;20095;-83
2022/07/01 10:34:24;;;;;;;5.00;3.08;;;19.70;99.90;;;;;;5019802;28;20049;-84
2022/07/01 10:37:08;;;;;;;5.25;3.20;;;19.70;99.90;;;;;;5018644;28;20114;-82
2022/07/01 10:40:00;;;;;;;7.03;2.58;;;19.70;99.90;;;;;;5035007;28;20049;-82
2022/07/01 10:42:36;;;;;;;5.18;2.03;;;19.10;99.90;;;;;;5018283;28;20045;-81
2022/07/01 10:45:09;;;;;;;6.78;2.10;;;19.20;99.90;;;;;;5034412;28;20052;-82
2022/07/01 10:47:36;;;;;;;;;;;19.20;99.90;;;;;;5028843;28;20080;-81
2022/07/01 10:50:11;;;;;;;8.23;2.53;;;18.80;99.90;;;;;;5050710;28;19925;-82
2022/07/01 10:52:38;;;;;;;4.68;1.17;;;18.60;99.90;;;;;;5018496;28;20406;-82
2022/07/01 10:55:06;;;;;;;3.88;1.27;;;18.50;99.90;;;;;;5034429;28;20429;-82
2022/07/01 10:57:41;;;;;;;2.70;0.95;;;18.20;99.90;;;;;;5015791;28;20068;-82
2022/07/01 11:00:07;;;;;;;3.28;1.08;;;;;;;;;;5037074;28;20041;-83
2022/07/01 11:02:34;;;;;;;1.30;0.98;;;18.00;99.90;;;;;;5018510;28;20049;-83
2022/07/01 11:05:14;;;;;;;2.58;1.00;;;17.90;99.90;;;;;;5034253;28;20041;-83
2022/07/01 11:07:45;;;;;;;3.58;1.65;;;;;;;;;;5016343;28;20053;-82
2022/07/01 11:10:15;;;;;;;2.92;1.23;;;17.90;99.90;;;;;;5019957;28;20401;-82
2022/07/01 11:12:41;;;;;;;1.75;1.00;;;;;;;;;;5030693;28;20111;-81
2022/07/01 11:15:10;;;;;;;1.55;0.90;;;17.70;99.90;;;;;;5033910;28;20044;-82
2022/07/01 11:17:43;;;;;;;1.38;0.70;;;17.90;99.90;;;;;;5034202;28;20427;-81
2022/07/01 11:20:09;;;;;;;1.63;1.02;;;17.70;99.90;;;;;;5033570;28;20041;-81
2022/07/01 11:22:36;;;;;;;4.50;1.00;;;;;;;;;;5012932;28;20053;-81
2022/07/01 11:25:04;;;;;;;4.35;1.40;;;17.70;99.90;;;;;;5014559;28;20418;-81
2022/07/01 11:27:31;;;;;;;2.88;1.10;;;17.80;99.90;;;;;;5023284;28;20540;-82
2022/07/01 11:29:59;;;;;;;7.88;1.40;;;18.10;99.90;;;;;;5059279;28;20075;-82
2022/07/01 11:32:28;;;;;;;1.83;1.30;;;18.00;99.90;;;;;;5031011;28;20052;-81
2022/07/01 11:34:54;;;;;;;4.70;1.75;;;;;;;;;;5033760;28;20049;-82
2022/07/01 11:40:09;;;;;;;11.00;2.30;;;18.50;99.90;;;;;;5032842;28;20102;-82
2022/07/01 11:42:35;;;;;;;2.28;1.30;;;;;;;;;;5031377;28;21776;-82
2022/07/01 11:45:01;;;;;;;3.88;1.52;;;;;;;;;;5045236;28;20045;-81
2022/07/01 11:47:28;;;;;;;3.95;1.73;;;;;;;;;;5013197;28;20050;-83
2022/07/01 11:49:55;;;;;;;3.42;1.40;;;19.00;99.90;;;;;;4997233;28;20064;-81
2022/07/01 11:52:22;;;;;;;4.72;1.90;;;19.50;99.90;;;;;;4997010;28;20049;-84
2022/07/01 11:54:51;;;;;;;3.95;1.85;;;19.50;99.90;;;;;;5028034;28;20052;-82
2022/07/01 11:57:20;;;;;;;6.15;2.20;;;19.30;99.90;;;;;;5011235;28;20490;-83
2022/07/01 11:59:48;;;;;;;2.03;1.45;;;19.50;99.90;;;;;;5032026;28;20571;-84
2022/07/01 12:02:16;;;;;;;5.10;1.80;;;19.40;99.90;;;;;;5032935;28;20036;-83
2022/07/01 12:04:43;;;;;;;4.30;1.92;;;19.30;99.90;;;;;;5015336;28;20167;-84
2022/07/01 12:07:10;;;;;;;3.17;1.73;;;19.00;99.90;;;;;;5029830;28;20573;-83
2022/07/01 12:09:36;;;;;;;2.63;1.85;;;;;;;;;;5013770;28;20044;-83
2022/07/01 12:12:03;;;;;;;2.13;1.60;;;19.20;99.90;;;;;;5013779;28;20092;-83
2022/07/01 12:14:31;;;;;;;5.93;1.83;;;19.10;99.90;;;;;;5031201;28;20048;-83
2022/07/01 12:16:59;;;;;;;2.65;1.30;;;19.30;99.90;;;;;;5016840;28;20102;-83
2022/07/01 12:19:29;;;;;;;2.55;1.50;;;19.40;99.90;;;;;;5011514;28;20079;-82
2022/07/01 12:21:58;;;;;;;3.15;1.20;;;19.30;99.90;;;;;;5028581;28;20056;-83
2022/07/01 12:24:24;;;;;;;8.13;1.38;;;19.40;99.90;;;;;;4997117;28;20053;-82
2022/07/01 12:27:04;;;;;;;1.98;0.95;;;19.50;99.90;;;;;;4997034;28;20417;-81
2022/07/01 12:29:40;;;;;;;2.60;1.15;;;19.20;99.90;;;;;;5030903;28;20056;-82
2022/07/01 12:32:07;;;;;;;3.22;1.35;;;19.60;99.90;;;;;;5035223;28;20132;-82
2022/07/01 12:34:44;;;;;;;3.75;1.42;;;19.60;99.90;;;;;;5026992;28;20044;-82
2022/07/01 12:37:31;;;;;;;3.13;0.98;;;19.70;99.90;;;;;;5018648;28;20055;-82
2022/07/01 12:40:19;;;;;;;3.33;1.40;;;19.60;99.90;;;;;;5009216;28;20047;-82
2022/07/01 12:42:45;;;;;;;2.88;1.17;;;;;;;;;;5044197;28;20127;-82
2022/07/01 12:45:17;;;;;;;1.50;1.10;;;19.70;99.90;;;;;;5016682;28;20056;-82
2022/07/01 12:47:48;;;;;;;2.75;0.90;;;19.80;99.90;;;;;;5032417;28;20072;-82
2022/07/01 12:50:26;;;;;;;1.48;1.20;;;20.00;99.90;;;;;;5032698;28;20048;-82
2022/07/01 12:53:12;;;;;;;4.13;1.08;;;19.90;99.90;;;;;;5034523;28;20041;-82
2022/07/01 12:55:38;;;;;;;6.38;0.98;;;;;;;;;;4998863;28;20128;-82
2022/07/01 12:58:05;;;;;;;4.15;1.25;;;19.90;99.90;;;;;;5030826;28;20148;-82
2022/07/01 13:00:32;;;;;;;3.70;1.23;;;;;;;;;;5041339;28;20044;-82
2022/07/01 13:02:59;;;;;;;2.20;0.95;;;20.00;99.90;;;;;;5032766;28;20053;-82
2022/07/01 13:05:26;;;;;;;2.97;1.63;;;;;;;;;;5031758;28;20072;-82
2022/07/01 13:07:52;;;;;;;2.53;1.15;;;;;;;;;;5010788;28;20049;-82
2022/07/01 13:10:18;;;;;;;3.22;0.82;;;20.20;99.90;;;;;;5028282;28;20589;-82
2022/07/01 13:12:44;;;;;;;1.45;0.93;;;;;;;;;;5016486;28;20072;-82
2022/07/01 13:15:11;;;;;;;1.65;1.05;;;20.60;99.90;;;;;;5035771;28;20052;-83
2022/07/01 13:17:38;;;;;;;5.18;1.23;;;;;;;;;;5034474;28;20051;-82
2022/07/01 13:20:04;;;;;;;4.57;1.10;;;20.70;99.90;;;;;;5019995;28;20049;-84
2022/07/01 13:22:31;;;;;;;3.33;0.80;;;;;;;;;;5016279;28;20037;-82
2022/07/01 13:24:57;;;;;;;2.17;0.82;;;;;;;;;;5019591;28;20048;-84
2022/07/01 13:27:23;;;;;;;2.15;0.90;;;;;;;;;;5036036;28;20175;-83
2022/07/01 13:29:49;;;;;;;1.17;0.82;;;;;;;;;;5025055;28;20044;-82
2022/07/01 13:32:15;;;;;;;3.83;1.20;;;20.30;99.90;;;;;;5035659;28;20079;-83
2022/07/01 13:34:41;;;;;;;5.05;1.42;;;;;;;;;;5035002;28;20053;-81
2022/07/01 13:37:08;;;;;;;5.57;1.55;;;;;;;;;;5033024;28;20473;-83
2022/07/01 13:39:34;;;;;;;3.78;1.33;;;;;;;;;;5035330;28;20041;-82
2022/07/01 13:42:00;;;;;;;4.10;1.90;;;20.30;99.90;;;;;;5035367;28;20037;-82
2022/07/01 13:44:26;;;;;;;3.65;1.30;;;;;;;;;;5034484;28;20040;-84
2022/07/01 13:46:52;;;;;;;4.15;1.00;;;;;;;;;;5019308;28;20064;-84
2022/07/01 13:49:18;;;;;;;2.38;1.20;;;;;;;;;;5018663;28;20401;-84
2022/07/01 13:51:44;;;;;;;2.80;1.35;;;;;;;;;;5017492;28;20060;-82
2022/07/01 13:54:10;;;;;;;3.35;0.95;;;;;;;;;;5019167;28;20138;-83
2022/07/01 13:56:36;;;;;;;5.93;1.20;;;;;;;;;;5019581;28;20068;-84
2022/07/01 13:59:03;;;;;;;6.13;1.40;;;;;;;;;;5016510;28;20490;-83
2022/07/01 14:01:29;;;;;;;3.67;1.48;;;;;;;;;;5017857;28;20474;-83
2022/07/01 14:03:55;;;;;;;4.50;1.23;;;;;;;;;;5017902;28;20057;-83
2022/07/01 14:06:21;;;;;;;5.50;1.13;;;;;;;;;;5035654;28;20068;-84
2022/07/01 14:08:47;;;;;;;6.07;1.10;;;;;;;;;;5017748;28;20037;-84
2022/07/01 14:11:14;;;;;;;4.30;1.30;;;;;;;;;;5035424;28;20048;-84
2022/07/01 14:13:40;;;;;;;6.15;1.50;;;;;;;;;;5033271;28;20049;-84
2022/07/01 14:16:07;;;;;;;13.98;2.25;;;20.40;99.90;;;;;;5018308;28;20048;-84
2022/07/01 14:18:33;;;;;;;5.68;1.42;;;20.50;99.90;;;;;;5019065;28;20033;-85
2022/07/01 14:21:00;;;;;;;3.65;2.03;;;20.50;99.90;;;;;;5015300;28;20116;-83
2022/07/01 14:23:26;;;;;;;5.38;1.73;;;;;;;;;;5023684;28;20557;-83
2022/07/01 14:25:52;;;;;;;2.55;1.67;;;;;;;;;;5032538;28;20094;-82